Terminal Aerodrome Forecast
Issued by NWS Louisville, KY

Home | Current Version | Previous Version | Text Only | Print | Product List | Glossary On
Versions: 1 2 3 4 5 6 7 8 9 10 11 12 13 14 15 16 17
000
FTUS43 KLMK 210500
TAFSDF
TAF
KSDF 210520Z 2106/2212 24007KT P6SM SCT090
     FM211300 23011KT P6SM SKC
     FM211500 25017G27KT P6SM BKN080
     FM212300 24012KT P6SM SCT060 BKN100=

USA.gov is the U.S. government's official web portal to all federal, state and local government web resources and services.